sensor_id;sensor_type;location;lat;lon;timestamp;temperature;humidity
59556;DHT22;45374;52.746;6.304;2024-02-14T00:02:17;7.00;99.90
59556;DHT22;45374;52.746;6.304;2024-02-14T00:04:43;7.00;99.90
59556;DHT22;45374;52.746;6.304;2024-02-14T00:07:08;7.00;99.90
59556;DHT22;45374;52.746;6.304;2024-02-14T00:09:34;7.10;99.90
59556;DHT22;45374;52.746;6.304;2024-02-14T00:12:00;7.00;99.90
59556;DHT22;45374;52.746;6.304;2024-02-14T00:14:26;7.10;99.90
59556;DHT22;45374;52.746;6.304;2024-02-14T00:16:51;7.10;99.90
59556;DHT22;45374;52.746;6.304;2024-02-14T00:19:17;7.10;99.90
59556;DHT22;45374;52.746;6.304;2024-02-14T00:21:43;7.20;99.90
59556;DHT22;45374;52.746;6.304;2024-02-14T00:24:08;7.20;99.90
59556;DHT22;45374;52.746;6.304;2024-02-14T00:26:34;7.20;99.90
59556;DHT22;45374;52.746;6.304;2024-02-14T00:29:00;7.10;99.90
59556;DHT22;45374;52.746;6.304;2024-02-14T00:31:25;7.20;99.90
59556;DHT22;45374;52.746;6.304;2024-02-14T00:33:51;7.20;99.90
59556;DHT22;45374;52.746;6.304;2024-02-14T00:36:16;7.30;99.90
59556;DHT22;45374;52.746;6.304;2024-02-14T00:38:43;7.30;99.90
59556;DHT22;45374;52.746;6.304;2024-02-14T00:41:11;7.30;99.90
59556;DHT22;45374;52.746;6.304;2024-02-14T00:43:36;7.40;99.90
59556;DHT22;45374;52.746;6.304;2024-02-14T00:46:02;7.40;99.90
59556;DHT22;45374;52.746;6.304;2024-02-14T00:48:27;7.40;99.90
59556;DHT22;45374;52.746;6.304;2024-02-14T00:50:53;7.40;99.90
59556;DHT22;45374;52.746;6.304;2024-02-14T00:53:19;7.40;99.90
59556;DHT22;45374;52.746;6.304;2024-02-14T00:55:46;7.50;99.90
59556;DHT22;45374;52.746;6.304;2024-02-14T00:58:11;7.50;99.90
59556;DHT22;45374;52.746;6.304;2024-02-14T01:00:37;7.50;99.90
59556;DHT22;45374;52.746;6.304;2024-02-14T01:03:03;7.50;99.90
59556;DHT22;45374;52.746;6.304;2024-02-14T01:05:28;7.50;99.90
59556;DHT22;45374;52.746;6.304;2024-02-14T01:07:54;7.50;99.90
59556;DHT22;45374;52.746;6.304;2024-02-14T01:10:20;7.60;99.90
59556;DHT22;45374;52.746;6.304;2024-02-14T01:12:46;7.50;99.90
59556;DHT22;45374;52.746;6.304;2024-02-14T01:15:11;7.60;99.90
59556;DHT22;45374;52.746;6.304;2024-02-14T01:17:37;7.60;99.90
59556;DHT22;45374;52.746;6.304;2024-02-14T01:20:07;7.60;99.90
59556;DHT22;45374;52.746;6.304;2024-02-14T01:22:34;7.70;99.90
59556;DHT22;45374;52.746;6.304;2024-02-14T01:25:01;7.60;99.90
59556;DHT22;45374;52.746;6.304;2024-02-14T01:27:26;7.70;99.90
59556;DHT22;45374;52.746;6.304;2024-02-14T01:29:54;7.70;99.90
59556;DHT22;45374;52.746;6.304;2024-02-14T01:32:20;7.80;99.90
59556;DHT22;45374;52.746;6.304;2024-02-14T01:34:46;7.80;99.90
59556;DHT22;45374;52.746;6.304;2024-02-14T01:37:12;7.70;99.90
59556;DHT22;45374;52.746;6.304;2024-02-14T01:39:37;7.80;99.90
59556;DHT22;45374;52.746;6.304;2024-02-14T01:42:03;7.80;99.90
59556;DHT22;45374;52.746;6.304;2024-02-14T01:44:33;7.90;99.90
59556;DHT22;45374;52.746;6.304;2024-02-14T01:46:59;7.90;99.90
59556;DHT22;45374;52.746;6.304;2024-02-14T01:49:25;7.80;99.90
59556;DHT22;45374;52.746;6.304;2024-02-14T01:51:58;7.90;99.90
59556;DHT22;45374;52.746;6.304;2024-02-14T01:54:25;7.90;99.90
59556;DHT22;45374;52.746;6.304;2024-02-14T01:56:52;8.00;99.90
59556;DHT22;45374;52.746;6.304;2024-02-14T01:59:18;8.00;99.90
59556;DHT22;45374;52.746;6.304;2024-02-14T02:01:44;8.00;99.90
59556;DHT22;45374;52.746;6.304;2024-02-14T02:04:10;8.00;99.90
59556;DHT22;45374;52.746;6.304;2024-02-14T02:06:36;8.10;99.90
59556;DHT22;45374;52.746;6.304;2024-02-14T02:09:02;8.10;99.90
59556;DHT22;45374;52.746;6.304;2024-02-14T02:11:28;8.10;99.90
59556;DHT22;45374;52.746;6.304;2024-02-14T02:13:55;8.00;99.90
59556;DHT22;45374;52.746;6.304;2024-02-14T02:16:21;8.10;99.90
59556;DHT22;45374;52.746;6.304;2024-02-14T02:18:47;8.10;99.90
59556;DHT22;45374;52.746;6.304;2024-02-14T02:21:14;8.10;99.90
59556;DHT22;45374;52.746;6.304;2024-02-14T02:23:40;8.20;99.90
59556;DHT22;45374;52.746;6.304;2024-02-14T02:26:10;8.20;99.90
59556;DHT22;45374;52.746;6.304;2024-02-14T02:28:36;8.20;99.90
59556;DHT22;45374;52.746;6.304;2024-02-14T02:31:05;8.20;99.90
59556;DHT22;45374;52.746;6.304;2024-02-14T02:33:30;8.10;99.90
59556;DHT22;45374;52.746;6.304;2024-02-14T02:35:56;8.10;99.90
59556;DHT22;45374;52.746;6.304;2024-02-14T02:38:21;8.20;99.90
59556;DHT22;45374;52.746;6.304;2024-02-14T02:40:48;8.30;99.90
59556;DHT22;45374;52.746;6.304;2024-02-14T02:43:13;8.30;99.90
59556;DHT22;45374;52.746;6.304;2024-02-14T02:45:39;8.20;99.90
59556;DHT22;45374;52.746;6.304;2024-02-14T02:48:05;8.30;99.90
59556;DHT22;45374;52.746;6.304;2024-02-14T02:50:31;8.30;99.90
59556;DHT22;45374;52.746;6.304;2024-02-14T02:52:56;8.40;99.90
59556;DHT22;45374;52.746;6.304;2024-02-14T02:55:22;8.50;99.90
59556;DHT22;45374;52.746;6.304;2024-02-14T02:57:48;8.50;99.90
59556;DHT22;45374;52.746;6.304;2024-02-14T03:00:14;8.50;99.90
59556;DHT22;45374;52.746;6.304;2024-02-14T03:02:41;8.40;99.90
59556;DHT22;45374;52.746;6.304;2024-02-14T03:05:10;8.60;99.90
59556;DHT22;45374;52.746;6.304;2024-02-14T03:07:39;8.60;99.90
59556;DHT22;45374;52.746;6.304;2024-02-14T03:10:05;8.60;99.90
59556;DHT22;45374;52.746;6.304;2024-02-14T03:12:30;8.70;99.90
59556;DHT22;45374;52.746;6.304;2024-02-14T03:14:57;8.80;99.90
59556;DHT22;45374;52.746;6.304;2024-02-14T03:17:23;8.70;99.90
59556;DHT22;45374;52.746;6.304;2024-02-14T03:19:49;8.70;99.90
59556;DHT22;45374;52.746;6.304;2024-02-14T03:22:17;8.70;99.90
59556;DHT22;45374;52.746;6.304;2024-02-14T03:24:44;8.80;99.90
59556;DHT22;45374;52.746;6.304;2024-02-14T03:27:12;8.80;99.90
59556;DHT22;45374;52.746;6.304;2024-02-14T03:29:37;8.80;99.90
59556;DHT22;45374;52.746;6.304;2024-02-14T03:32:04;8.90;99.90
59556;DHT22;45374;52.746;6.304;2024-02-14T03:34:31;8.90;99.90
59556;DHT22;45374;52.746;6.304;2024-02-14T03:36:59;9.00;99.90
59556;DHT22;45374;52.746;6.304;2024-02-14T03:39:25;8.90;99.90
59556;DHT22;45374;52.746;6.304;2024-02-14T03:41:50;9.00;99.90
59556;DHT22;45374;52.746;6.304;2024-02-14T03:44:16;9.00;99.90
59556;DHT22;45374;52.746;6.304;2024-02-14T03:46:41;9.00;99.90
59556;DHT22;45374;52.746;6.304;2024-02-14T03:49:07;9.10;99.90
59556;DHT22;45374;52.746;6.304;2024-02-14T03:51:32;9.10;99.90
59556;DHT22;45374;52.746;6.304;2024-02-14T03:53:59;9.10;99.90
59556;DHT22;45374;52.746;6.304;2024-02-14T03:56:24;9.10;99.90
59556;DHT22;45374;52.746;6.304;2024-02-14T03:58:51;9.20;99.90
59556;DHT22;45374;52.746;6.304;2024-02-14T04:01:17;9.10;99.90
59556;DHT22;45374;52.746;6.304;2024-02-14T04:03:42;9.20;99.90
59556;DHT22;45374;52.746;6.304;2024-02-14T04:06:08;9.30;99.90
59556;DHT22;45374;52.746;6.304;2024-02-14T04:08:34;9.30;99.90
59556;DHT22;45374;52.746;6.304;2024-02-14T04:11:00;9.20;99.90
59556;DHT22;45374;52.746;6.304;2024-02-14T04:13:26;9.20;99.90
59556;DHT22;45374;52.746;6.304;2024-02-14T04:15:52;9.30;99.90
59556;DHT22;45374;52.746;6.304;2024-02-14T04:18:18;9.30;99.90
59556;DHT22;45374;52.746;6.304;2024-02-14T04:20:44;9.40;99.90
59556;DHT22;45374;52.746;6.304;2024-02-14T04:23:10;9.30;99.90
59556;DHT22;45374;52.746;6.304;2024-02-14T04:25:36;9.30;99.90
59556;DHT22;45374;52.746;6.304;2024-02-14T04:28:03;9.40;99.90
59556;DHT22;45374;52.746;6.304;2024-02-14T04:30:28;9.30;99.90
59556;DHT22;45374;52.746;6.304;2024-02-14T04:32:54;9.40;99.90
59556;DHT22;45374;52.746;6.304;2024-02-14T04:35:20;9.40;99.90
59556;DHT22;45374;52.746;6.304;2024-02-14T04:37:46;9.40;99.90
59556;DHT22;45374;52.746;6.304;2024-02-14T04:40:13;9.40;99.90
59556;DHT22;45374;52.746;6.304;2024-02-14T04:42:40;9.30;99.90
59556;DHT22;45374;52.746;6.304;2024-02-14T04:45:05;9.40;99.90
59556;DHT22;45374;52.746;6.304;2024-02-14T04:47:32;9.50;99.90
59556;DHT22;45374;52.746;6.304;2024-02-14T04:49:57;9.30;99.90
59556;DHT22;45374;52.746;6.304;2024-02-14T04:52:23;9.40;99.90
59556;DHT22;45374;52.746;6.304;2024-02-14T04:54:48;9.40;99.90
59556;DHT22;45374;52.746;6.304;2024-02-14T04:57:14;9.40;99.90
59556;DHT22;45374;52.746;6.304;2024-02-14T04:59:40;9.40;99.90
59556;DHT22;45374;52.746;6.304;2024-02-14T05:02:06;9.40;99.90
59556;DHT22;45374;52.746;6.304;2024-02-14T05:04:32;9.50;99.90
59556;DHT22;45374;52.746;6.304;2024-02-14T05:07:00;9.40;99.90
59556;DHT22;45374;52.746;6.304;2024-02-14T05:09:26;9.50;99.90
59556;DHT22;45374;52.746;6.304;2024-02-14T05:11:51;9.50;99.90
59556;DHT22;45374;52.746;6.304;2024-02-14T05:14:17;9.50;99.90
59556;DHT22;45374;52.746;6.304;2024-02-14T05:16:43;9.50;99.90
59556;DHT22;45374;52.746;6.304;2024-02-14T05:19:09;9.50;99.90
59556;DHT22;45374;52.746;6.304;2024-02-14T05:21:35;9.40;99.90
59556;DHT22;45374;52.746;6.304;2024-02-14T05:24:01;9.50;99.90
59556;DHT22;45374;52.746;6.304;2024-02-14T05:26:27;9.50;99.90
59556;DHT22;45374;52.746;6.304;2024-02-14T05:28:52;9.60;99.90
59556;DHT22;45374;52.746;6.304;2024-02-14T05:31:18;9.50;99.90
59556;DHT22;45374;52.746;6.304;2024-02-14T05:33:43;9.60;99.90
59556;DHT22;45374;52.746;6.304;2024-02-14T05:36:09;9.60;99.90
59556;DHT22;45374;52.746;6.304;2024-02-14T05:38:35;9.60;99.90
59556;DHT22;45374;52.746;6.304;2024-02-14T05:41:01;9.60;99.90
59556;DHT22;45374;52.746;6.304;2024-02-14T05:43:27;9.70;99.90
59556;DHT22;45374;52.746;6.304;2024-02-14T05:45:52;9.80;99.90
59556;DHT22;45374;52.746;6.304;2024-02-14T05:48:19;9.80;99.90
59556;DHT22;45374;52.746;6.304;2024-02-14T05:50:45;9.70;99.90
59556;DHT22;45374;52.746;6.304;2024-02-14T05:53:11;9.80;99.90
59556;DHT22;45374;52.746;6.304;2024-02-14T05:55:38;9.70;99.90
59556;DHT22;45374;52.746;6.304;2024-02-14T05:58:04;9.80;99.90
59556;DHT22;45374;52.746;6.304;2024-02-14T06:00:29;9.80;99.90
59556;DHT22;45374;52.746;6.304;2024-02-14T06:02:55;9.80;99.90
59556;DHT22;45374;52.746;6.304;2024-02-14T06:05:21;9.90;99.90
59556;DHT22;45374;52.746;6.304;2024-02-14T06:07:47;9.90;99.90
59556;DHT22;45374;52.746;6.304;2024-02-14T06:10:12;9.90;99.90
59556;DHT22;45374;52.746;6.304;2024-02-14T06:12:38;9.90;99.90
59556;DHT22;45374;52.746;6.304;2024-02-14T06:15:06;10.00;99.90
59556;DHT22;45374;52.746;6.304;2024-02-14T06:17:33;9.90;99.90
59556;DHT22;45374;52.746;6.304;2024-02-14T06:19:58;10.00;99.90
59556;DHT22;45374;52.746;6.304;2024-02-14T06:22:24;9.90;99.90
59556;DHT22;45374;52.746;6.304;2024-02-14T06:24:50;10.00;99.90
59556;DHT22;45374;52.746;6.304;2024-02-14T06:27:16;10.00;99.90
59556;DHT22;45374;52.746;6.304;2024-02-14T06:29:42;10.00;99.90
59556;DHT22;45374;52.746;6.304;2024-02-14T06:32:08;10.10;99.90
59556;DHT22;45374;52.746;6.304;2024-02-14T06:34:33;10.10;99.90
59556;DHT22;45374;52.746;6.304;2024-02-14T06:36:59;10.10;99.90
59556;DHT22;45374;52.746;6.304;2024-02-14T06:39:25;10.00;99.90
59556;DHT22;45374;52.746;6.304;2024-02-14T06:41:50;10.10;99.90
59556;DHT22;45374;52.746;6.304;2024-02-14T06:44:16;10.10;99.90
59556;DHT22;45374;52.746;6.304;2024-02-14T06:46:41;10.10;99.90
59556;DHT22;45374;52.746;6.304;2024-02-14T06:49:08;10.00;99.90
59556;DHT22;45374;52.746;6.304;2024-02-14T06:51:34;10.20;99.90
59556;DHT22;45374;52.746;6.304;2024-02-14T06:53:59;10.20;99.90
59556;DHT22;45374;52.746;6.304;2024-02-14T06:56:25;10.10;99.90
59556;DHT22;45374;52.746;6.304;2024-02-14T06:58:50;10.10;99.90
59556;DHT22;45374;52.746;6.304;2024-02-14T07:01:19;10.20;99.90
59556;DHT22;45374;52.746;6.304;2024-02-14T07:03:48;10.30;99.90
59556;DHT22;45374;52.746;6.304;2024-02-14T07:06:14;10.20;99.90
59556;DHT22;45374;52.746;6.304;2024-02-14T07:08:43;10.20;99.90
59556;DHT22;45374;52.746;6.304;2024-02-14T07:11:09;10.20;99.90
59556;DHT22;45374;52.746;6.304;2024-02-14T07:13:34;10.20;99.90
59556;DHT22;45374;52.746;6.304;2024-02-14T07:16:00;10.10;99.90
59556;DHT22;45374;52.746;6.304;2024-02-14T07:18:25;10.20;99.90
59556;DHT22;45374;52.746;6.304;2024-02-14T07:20:51;10.30;99.90
59556;DHT22;45374;52.746;6.304;2024-02-14T07:23:18;10.20;99.90
59556;DHT22;45374;52.746;6.304;2024-02-14T07:25:44;10.10;99.90
59556;DHT22;45374;52.746;6.304;2024-02-14T07:28:10;10.10;99.90
59556;DHT22;45374;52.746;6.304;2024-02-14T07:30:36;10.10;99.90
59556;DHT22;45374;52.746;6.304;2024-02-14T07:33:01;10.10;99.90
59556;DHT22;45374;52.746;6.304;2024-02-14T07:35:27;10.10;99.90
59556;DHT22;45374;52.746;6.304;2024-02-14T07:37:52;10.00;99.90
59556;DHT22;45374;52.746;6.304;2024-02-14T07:40:19;10.00;99.90
59556;DHT22;45374;52.746;6.304;2024-02-14T07:42:44;10.10;99.90
59556;DHT22;45374;52.746;6.304;2024-02-14T07:45:10;10.00;99.90
59556;DHT22;45374;52.746;6.304;2024-02-14T07:47:35;10.10;99.90
59556;DHT22;45374;52.746;6.304;2024-02-14T07:50:01;10.00;99.90
59556;DHT22;45374;52.746;6.304;2024-02-14T07:52:28;10.00;99.90
59556;DHT22;45374;52.746;6.304;2024-02-14T07:54:54;10.10;99.90
59556;DHT22;45374;52.746;6.304;2024-02-14T07:57:23;10.10;99.90
59556;DHT22;45374;52.746;6.304;2024-02-14T07:59:50;10.10;99.90
59556;DHT22;45374;52.746;6.304;2024-02-14T08:02:17;10.30;99.90
59556;DHT22;45374;52.746;6.304;2024-02-14T08:04:42;10.10;99.90
59556;DHT22;45374;52.746;6.304;2024-02-14T08:07:09;10.20;99.90
59556;DHT22;45374;52.746;6.304;2024-02-14T08:09:34;10.20;99.90
59556;DHT22;45374;52.746;6.304;2024-02-14T08:12:00;10.20;99.90
59556;DHT22;45374;52.746;6.304;2024-02-14T08:14:26;10.10;99.90
59556;DHT22;45374;52.746;6.304;2024-02-14T08:16:52;10.30;99.90
59556;DHT22;45374;52.746;6.304;2024-02-14T08:19:17;10.20;99.90
59556;DHT22;45374;52.746;6.304;2024-02-14T08:21:46;10.20;99.90
59556;DHT22;45374;52.746;6.304;2024-02-14T08:24:12;10.30;99.90
59556;DHT22;45374;52.746;6.304;2024-02-14T08:26:37;10.20;99.90
59556;DHT22;45374;52.746;6.304;2024-02-14T08:29:03;10.20;99.90
59556;DHT22;45374;52.746;6.304;2024-02-14T08:31:29;10.40;99.90
59556;DHT22;45374;52.746;6.304;2024-02-14T08:33:56;10.40;99.90
59556;DHT22;45374;52.746;6.304;2024-02-14T08:36:22;10.40;99.90
59556;DHT22;45374;52.746;6.304;2024-02-14T08:38:47;10.40;99.90
59556;DHT22;45374;52.746;6.304;2024-02-14T08:41:13;10.40;99.90
59556;DHT22;45374;52.746;6.304;2024-02-14T08:43:39;10.50;99.90
59556;DHT22;45374;52.746;6.304;2024-02-14T08:46:10;10.30;99.90
59556;DHT22;45374;52.746;6.304;2024-02-14T08:48:36;10.50;99.90
59556;DHT22;45374;52.746;6.304;2024-02-14T08:51:05;10.30;99.90
59556;DHT22;45374;52.746;6.304;2024-02-14T08:53:32;10.30;99.90
59556;DHT22;45374;52.746;6.304;2024-02-14T08:55:58;10.30;99.90
59556;DHT22;45374;52.746;6.304;2024-02-14T08:58:23;10.30;99.90
59556;DHT22;45374;52.746;6.304;2024-02-14T09:00:49;10.30;99.90
59556;DHT22;45374;52.746;6.304;2024-02-14T09:03:15;10.40;99.90
59556;DHT22;45374;52.746;6.304;2024-02-14T09:05:41;10.40;99.90
59556;DHT22;45374;52.746;6.304;2024-02-14T09:08:06;10.40;99.90
59556;DHT22;45374;52.746;6.304;2024-02-14T09:10:32;10.40;99.90
59556;DHT22;45374;52.746;6.304;2024-02-14T09:12:58;10.40;99.90
59556;DHT22;45374;52.746;6.304;2024-02-14T09:15:23;10.40;99.90
59556;DHT22;45374;52.746;6.304;2024-02-14T09:17:49;10.40;99.90
59556;DHT22;45374;52.746;6.304;2024-02-14T09:20:15;10.50;99.90
59556;DHT22;45374;52.746;6.304;2024-02-14T09:22:40;10.40;99.90
59556;DHT22;45374;52.746;6.304;2024-02-14T09:25:07;10.40;99.90
59556;DHT22;45374;52.746;6.304;2024-02-14T09:27:35;10.50;99.90
59556;DHT22;45374;52.746;6.304;2024-02-14T09:30:01;10.50;99.90
59556;DHT22;45374;52.746;6.304;2024-02-14T09:32:30;10.60;99.90
59556;DHT22;45374;52.746;6.304;2024-02-14T09:34:55;10.60;99.90
59556;DHT22;45374;52.746;6.304;2024-02-14T09:37:22;10.70;99.90
59556;DHT22;45374;52.746;6.304;2024-02-14T09:39:48;10.50;99.90
59556;DHT22;45374;52.746;6.304;2024-02-14T09:42:14;10.70;99.90
59556;DHT22;45374;52.746;6.304;2024-02-14T09:44:41;10.70;99.90
59556;DHT22;45374;52.746;6.304;2024-02-14T09:47:09;10.60;99.90
59556;DHT22;45374;52.746;6.304;2024-02-14T09:49:35;10.80;99.90
59556;DHT22;45374;52.746;6.304;2024-02-14T09:52:02;10.90;99.90
59556;DHT22;45374;52.746;6.304;2024-02-14T09:54:29;10.80;99.90
59556;DHT22;45374;52.746;6.304;2024-02-14T09:56:57;11.00;99.90
59556;DHT22;45374;52.746;6.304;2024-02-14T09:59:23;10.90;99.90
59556;DHT22;45374;52.746;6.304;2024-02-14T10:01:49;10.90;99.90
59556;DHT22;45374;52.746;6.304;2024-02-14T10:04:16;11.00;99.90
59556;DHT22;45374;52.746;6.304;2024-02-14T10:06:47;10.90;99.90
59556;DHT22;45374;52.746;6.304;2024-02-14T10:09:19;10.90;99.90
59556;DHT22;45374;52.746;6.304;2024-02-14T10:11:45;10.90;99.90
59556;DHT22;45374;52.746;6.304;2024-02-14T10:14:12;10.90;99.90
59556;DHT22;45374;52.746;6.304;2024-02-14T10:16:38;10.90;99.90
59556;DHT22;45374;52.746;6.304;2024-02-14T10:19:03;10.80;99.90
59556;DHT22;45374;52.746;6.304;2024-02-14T10:21:29;10.90;99.90
59556;DHT22;45374;52.746;6.304;2024-02-14T10:24:01;11.00;99.90
59556;DHT22;45374;52.746;6.304;2024-02-14T10:26:29;11.00;99.90
59556;DHT22;45374;52.746;6.304;2024-02-14T10:28:56;11.00;99.90
59556;DHT22;45374;52.746;6.304;2024-02-14T10:31:25;11.00;99.90
59556;DHT22;45374;52.746;6.304;2024-02-14T10:33:52;10.90;99.90
59556;DHT22;45374;52.746;6.304;2024-02-14T10:36:19;10.90;99.90
59556;DHT22;45374;52.746;6.304;2024-02-14T10:38:46;11.00;99.90
59556;DHT22;45374;52.746;6.304;2024-02-14T10:41:16;11.00;99.90
59556;DHT22;45374;52.746;6.304;2024-02-14T10:43:42;11.10;99.90
59556;DHT22;45374;52.746;6.304;2024-02-14T10:46:22;11.00;99.90
59556;DHT22;45374;52.746;6.304;2024-02-14T10:48:50;11.00;99.90
59556;DHT22;45374;52.746;6.304;2024-02-14T10:51:21;11.10;99.90
59556;DHT22;45374;52.746;6.304;2024-02-14T10:53:48;11.20;99.90
59556;DHT22;45374;52.746;6.304;2024-02-14T10:56:17;11.20;99.90
59556;DHT22;45374;52.746;6.304;2024-02-14T10:58:47;11.30;99.90
59556;DHT22;45374;52.746;6.304;2024-02-14T11:01:14;11.30;99.90
59556;DHT22;45374;52.746;6.304;2024-02-14T11:03:42;11.30;99.90
59556;DHT22;45374;52.746;6.304;2024-02-14T11:06:08;11.30;99.90
59556;DHT22;45374;52.746;6.304;2024-02-14T11:08:34;11.30;99.90
59556;DHT22;45374;52.746;6.304;2024-02-14T11:11:00;11.50;99.90
59556;DHT22;45374;52.746;6.304;2024-02-14T11:13:30;11.40;99.90
59556;DHT22;45374;52.746;6.304;2024-02-14T11:16:02;11.40;99.90
59556;DHT22;45374;52.746;6.304;2024-02-14T11:18:30;11.50;99.90
59556;DHT22;45374;52.746;6.304;2024-02-14T11:20:57;11.40;99.90
59556;DHT22;45374;52.746;6.304;2024-02-14T11:23:25;11.40;99.90
59556;DHT22;45374;52.746;6.304;2024-02-14T11:26:00;11.50;99.90
59556;DHT22;45374;52.746;6.304;2024-02-14T11:28:26;11.50;99.90
59556;DHT22;45374;52.746;6.304;2024-02-14T11:31:00;11.50;99.90
59556;DHT22;45374;52.746;6.304;2024-02-14T11:33:26;11.60;99.90
59556;DHT22;45374;52.746;6.304;2024-02-14T11:35:53;11.60;99.90
59556;DHT22;45374;52.746;6.304;2024-02-14T11:38:19;11.60;99.90
59556;DHT22;45374;52.746;6.304;2024-02-14T11:40:45;11.70;99.90
59556;DHT22;45374;52.746;6.304;2024-02-14T11:43:16;11.70;99.90
59556;DHT22;45374;52.746;6.304;2024-02-14T11:45:48;11.70;99.90
59556;DHT22;45374;52.746;6.304;2024-02-14T11:48:21;11.70;99.90
59556;DHT22;45374;52.746;6.304;2024-02-14T11:50:47;11.60;99.90
59556;DHT22;45374;52.746;6.304;2024-02-14T11:53:14;11.70;99.90
59556;DHT22;45374;52.746;6.304;2024-02-14T11:55:44;11.70;99.90
59556;DHT22;45374;52.746;6.304;2024-02-14T11:58:14;11.70;99.90
59556;DHT22;45374;52.746;6.304;2024-02-14T12:00:45;11.60;99.90
59556;DHT22;45374;52.746;6.304;2024-02-14T12:03:19;11.60;99.90
59556;DHT22;45374;52.746;6.304;2024-02-14T12:05:48;11.50;99.90
59556;DHT22;45374;52.746;6.304;2024-02-14T12:08:16;11.60;99.90
59556;DHT22;45374;52.746;6.304;2024-02-14T12:10:46;11.60;99.90
59556;DHT22;45374;52.746;6.304;2024-02-14T12:13:20;11.70;99.90
59556;DHT22;45374;52.746;6.304;2024-02-14T12:15:47;11.60;99.90
59556;DHT22;45374;52.746;6.304;2024-02-14T12:18:13;11.60;99.90
59556;DHT22;45374;52.746;6.304;2024-02-14T12:20:39;11.70;99.90
59556;DHT22;45374;52.746;6.304;2024-02-14T12:23:05;11.60;99.90
59556;DHT22;45374;52.746;6.304;2024-02-14T12:25:31;11.70;99.90
59556;DHT22;45374;52.746;6.304;2024-02-14T12:27:58;11.60;99.90
59556;DHT22;45374;52.746;6.304;2024-02-14T12:30:42;11.60;99.90
59556;DHT22;45374;52.746;6.304;2024-02-14T12:33:13;11.70;99.90
59556;DHT22;45374;52.746;6.304;2024-02-14T12:35:43;11.60;99.90
59556;DHT22;45374;52.746;6.304;2024-02-14T12:38:10;11.70;99.90
59556;DHT22;45374;52.746;6.304;2024-02-14T12:40:36;11.60;99.90
59556;DHT22;45374;52.746;6.304;2024-02-14T12:43:02;11.60;99.90
59556;DHT22;45374;52.746;6.304;2024-02-14T12:45:28;11.70;99.90
59556;DHT22;45374;52.746;6.304;2024-02-14T12:47:54;11.60;99.90
59556;DHT22;45374;52.746;6.304;2024-02-14T12:50:19;11.60;99.90
59556;DHT22;45374;52.746;6.304;2024-02-14T12:52:46;11.60;99.90
59556;DHT22;45374;52.746;6.304;2024-02-14T12:55:12;11.70;99.90
59556;DHT22;45374;52.746;6.304;2024-02-14T12:57:38;11.60;99.90
59556;DHT22;45374;52.746;6.304;2024-02-14T13:00:05;11.70;99.90
59556;DHT22;45374;52.746;6.304;2024-02-14T13:02:34;11.60;99.90
59556;DHT22;45374;52.746;6.304;2024-02-14T13:05:00;11.70;99.90
59556;DHT22;45374;52.746;6.304;2024-02-14T13:07:27;11.70;99.90
59556;DHT22;45374;52.746;6.304;2024-02-14T13:09:53;11.70;99.90
59556;DHT22;45374;52.746;6.304;2024-02-14T13:12:20;11.70;99.90
59556;DHT22;45374;52.746;6.304;2024-02-14T13:14:46;11.70;99.90
59556;DHT22;45374;52.746;6.304;2024-02-14T13:17:12;11.70;99.90
59556;DHT22;45374;52.746;6.304;2024-02-14T13:19:38;11.70;99.90
59556;DHT22;45374;52.746;6.304;2024-02-14T13:22:05;11.90;99.90
59556;DHT22;45374;52.746;6.304;2024-02-14T13:24:30;11.80;99.90
59556;DHT22;45374;52.746;6.304;2024-02-14T13:26:56;11.90;99.90
59556;DHT22;45374;52.746;6.304;2024-02-14T13:29:23;11.90;99.90
59556;DHT22;45374;52.746;6.304;2024-02-14T13:31:50;11.90;99.90
59556;DHT22;45374;52.746;6.304;2024-02-14T13:34:17;11.80;99.90
59556;DHT22;45374;52.746;6.304;2024-02-14T13:36:45;11.90;99.90
59556;DHT22;45374;52.746;6.304;2024-02-14T13:39:11;11.80;99.90
59556;DHT22;45374;52.746;6.304;2024-02-14T13:41:38;11.80;99.90
59556;DHT22;45374;52.746;6.304;2024-02-14T13:44:06;11.80;99.90
59556;DHT22;45374;52.746;6.304;2024-02-14T13:46:31;11.90;99.90
59556;DHT22;45374;52.746;6.304;2024-02-14T13:48:57;11.90;99.90
59556;DHT22;45374;52.746;6.304;2024-02-14T13:51:23;12.00;99.90
59556;DHT22;45374;52.746;6.304;2024-02-14T13:53:49;12.00;99.90
59556;DHT22;45374;52.746;6.304;2024-02-14T13:56:14;12.10;99.90
59556;DHT22;45374;52.746;6.304;2024-02-14T13:58:41;12.00;99.90
59556;DHT22;45374;52.746;6.304;2024-02-14T14:01:07;12.00;99.90
59556;DHT22;45374;52.746;6.304;2024-02-14T14:03:33;11.90;99.90
59556;DHT22;45374;52.746;6.304;2024-02-14T14:06:02;11.90;99.90
59556;DHT22;45374;52.746;6.304;2024-02-14T14:08:28;11.80;99.90
59556;DHT22;45374;52.746;6.304;2024-02-14T14:10:53;11.80;99.90
59556;DHT22;45374;52.746;6.304;2024-02-14T14:13:19;11.80;99.90
59556;DHT22;45374;52.746;6.304;2024-02-14T14:15:45;11.70;99.90
59556;DHT22;45374;52.746;6.304;2024-02-14T14:18:10;11.70;99.90
59556;DHT22;45374;52.746;6.304;2024-02-14T14:20:36;11.80;99.90
59556;DHT22;45374;52.746;6.304;2024-02-14T14:23:02;11.70;99.90
59556;DHT22;45374;52.746;6.304;2024-02-14T14:25:29;11.80;99.90
59556;DHT22;45374;52.746;6.304;2024-02-14T14:27:57;11.70;99.90
59556;DHT22;45374;52.746;6.304;2024-02-14T14:30:23;11.80;99.90
59556;DHT22;45374;52.746;6.304;2024-02-14T14:32:49;11.70;99.90
59556;DHT22;45374;52.746;6.304;2024-02-14T14:35:14;11.70;99.90
59556;DHT22;45374;52.746;6.304;2024-02-14T14:37:40;11.80;99.90
59556;DHT22;45374;52.746;6.304;2024-02-14T14:40:06;11.70;99.90
59556;DHT22;45374;52.746;6.304;2024-02-14T14:42:33;11.80;99.90
59556;DHT22;45374;52.746;6.304;2024-02-14T14:44:59;11.90;99.90
59556;DHT22;45374;52.746;6.304;2024-02-14T14:47:24;12.00;99.90
59556;DHT22;45374;52.746;6.304;2024-02-14T14:49:50;12.00;99.90
59556;DHT22;45374;52.746;6.304;2024-02-14T14:52:16;12.00;99.90
59556;DHT22;45374;52.746;6.304;2024-02-14T14:54:42;12.00;99.90
59556;DHT22;45374;52.746;6.304;2024-02-14T14:57:07;11.90;99.90
59556;DHT22;45374;52.746;6.304;2024-02-14T14:59:40;12.00;99.90
59556;DHT22;45374;52.746;6.304;2024-02-14T15:02:06;11.90;99.90
59556;DHT22;45374;52.746;6.304;2024-02-14T15:04:35;11.80;99.90
59556;DHT22;45374;52.746;6.304;2024-02-14T15:07:02;11.80;99.90
59556;DHT22;45374;52.746;6.304;2024-02-14T15:09:27;11.80;99.90
59556;DHT22;45374;52.746;6.304;2024-02-14T15:11:53;11.80;99.90
59556;DHT22;45374;52.746;6.304;2024-02-14T15:14:19;11.90;99.90
59556;DHT22;45374;52.746;6.304;2024-02-14T15:16:44;11.90;99.90
59556;DHT22;45374;52.746;6.304;2024-02-14T15:19:10;11.80;99.90
59556;DHT22;45374;52.746;6.304;2024-02-14T15:21:36;11.90;99.90
59556;DHT22;45374;52.746;6.304;2024-02-14T15:24:02;12.00;99.90
59556;DHT22;45374;52.746;6.304;2024-02-14T15:26:29;11.90;99.90
59556;DHT22;45374;52.746;6.304;2024-02-14T15:28:55;11.80;99.90
59556;DHT22;45374;52.746;6.304;2024-02-14T15:31:41;11.90;99.90
59556;DHT22;45374;52.746;6.304;2024-02-14T15:34:25;11.80;99.90